sensor_id;sensor_type;location;lat;lon;timestamp;P1;durP1;ratioP1;P2;durP2;ratioP2
74215;SDS011;62577;53.378;-2.914;2022-10-23T00:00:37;10.50;;;3.63;;
74215;SDS011;62577;53.378;-2.914;2022-10-23T00:03:03;11.82;;;3.60;;
74215;SDS011;62577;53.378;-2.914;2022-10-23T00:05:29;12.00;;;4.13;;
74215;SDS011;62577;53.378;-2.914;2022-10-23T00:07:57;11.38;;;4.20;;
74215;SDS011;62577;53.378;-2.914;2022-10-23T00:10:24;8.95;;;3.70;;
74215;SDS011;62577;53.378;-2.914;2022-10-23T00:12:50;8.07;;;3.55;;
74215;SDS011;62577;53.378;-2.914;2022-10-23T00:15:18;11.43;;;3.55;;
74215;SDS011;62577;53.378;-2.914;2022-10-23T00:17:44;6.10;;;3.47;;
74215;SDS011;62577;53.378;-2.914;2022-10-23T00:20:10;8.95;;;4.00;;
74215;SDS011;62577;53.378;-2.914;2022-10-23T00:22:37;9.52;;;4.25;;
74215;SDS011;62577;53.378;-2.914;2022-10-23T00:25:06;7.80;;;3.75;;
74215;SDS011;62577;53.378;-2.914;2022-10-23T00:27:32;12.88;;;4.47;;
74215;SDS011;62577;53.378;-2.914;2022-10-23T00:29:58;7.55;;;4.38;;
74215;SDS011;62577;53.378;-2.914;2022-10-23T00:32:24;8.85;;;3.75;;
74215;SDS011;62577;53.378;-2.914;2022-10-23T00:34:50;10.35;;;3.55;;
74215;SDS011;62577;53.378;-2.914;2022-10-23T00:37:16;8.65;;;3.85;;
74215;SDS011;62577;53.378;-2.914;2022-10-23T00:39:42;9.50;;;3.65;;
74215;SDS011;62577;53.378;-2.914;2022-10-23T00:42:15;10.90;;;3.78;;
74215;SDS011;62577;53.378;-2.914;2022-10-23T00:47:07;11.30;;;3.63;;
74215;SDS011;62577;53.378;-2.914;2022-10-23T00:49:34;6.18;;;3.40;;
74215;SDS011;62577;53.378;-2.914;2022-10-23T00:52:01;8.77;;;3.67;;
74215;SDS011;62577;53.378;-2.914;2022-10-23T00:54:29;9.45;;;3.80;;
74215;SDS011;62577;53.378;-2.914;2022-10-23T00:56:58;7.47;;;4.10;;
74215;SDS011;62577;53.378;-2.914;2022-10-23T00:59:26;7.80;;;3.63;;
74215;SDS011;62577;53.378;-2.914;2022-10-23T01:01:52;7.95;;;3.30;;
74215;SDS011;62577;53.378;-2.914;2022-10-23T01:04:18;8.27;;;3.35;;
74215;SDS011;62577;53.378;-2.914;2022-10-23T01:09:17;11.40;;;3.03;;
74215;SDS011;62577;53.378;-2.914;2022-10-23T01:11:48;7.72;;;2.78;;
74215;SDS011;62577;53.378;-2.914;2022-10-23T01:19:20;11.43;;;4.30;;
74215;SDS011;62577;53.378;-2.914;2022-10-23T01:24:29;6.68;;;3.80;;
74215;SDS011;62577;53.378;-2.914;2022-10-23T01:34:59;5.55;;;3.20;;
74215;SDS011;62577;53.378;-2.914;2022-10-23T01:37:32;6.72;;;3.50;;
74215;SDS011;62577;53.378;-2.914;2022-10-23T01:40:00;9.15;;;3.90;;
74215;SDS011;62577;53.378;-2.914;2022-10-23T01:42:28;9.52;;;4.05;;
74215;SDS011;62577;53.378;-2.914;2022-10-23T01:47:24;8.23;;;3.40;;
74215;SDS011;62577;53.378;-2.914;2022-10-23T01:49:51;6.63;;;3.08;;
74215;SDS011;62577;53.378;-2.914;2022-10-23T01:52:18;9.95;;;3.90;;
74215;SDS011;62577;53.378;-2.914;2022-10-23T01:54:44;14.13;;;4.57;;
74215;SDS011;62577;53.378;-2.914;2022-10-23T01:57:13;16.55;;;5.15;;
74215;SDS011;62577;53.378;-2.914;2022-10-23T01:59:42;11.80;;;4.60;;
74215;SDS011;62577;53.378;-2.914;2022-10-23T02:02:09;10.88;;;4.68;;
74215;SDS011;62577;53.378;-2.914;2022-10-23T02:04:37;9.65;;;3.92;;
74215;SDS011;62577;53.378;-2.914;2022-10-23T02:07:04;9.45;;;4.53;;
74215;SDS011;62577;53.378;-2.914;2022-10-23T02:09:31;9.13;;;4.35;;
74215;SDS011;62577;53.378;-2.914;2022-10-23T02:12:07;9.93;;;4.38;;
74215;SDS011;62577;53.378;-2.914;2022-10-23T02:14:45;11.63;;;4.20;;
74215;SDS011;62577;53.378;-2.914;2022-10-23T02:17:14;9.82;;;4.63;;
74215;SDS011;62577;53.378;-2.914;2022-10-23T02:19:44;7.72;;;4.68;;
74215;SDS011;62577;53.378;-2.914;2022-10-23T02:22:20;14.82;;;4.93;;
74215;SDS011;62577;53.378;-2.914;2022-10-23T02:27:37;9.73;;;5.03;;
74215;SDS011;62577;53.378;-2.914;2022-10-23T02:30:09;10.55;;;5.05;;
74215;SDS011;62577;53.378;-2.914;2022-10-23T02:32:36;13.82;;;6.65;;
74215;SDS011;62577;53.378;-2.914;2022-10-23T02:35:04;12.70;;;5.15;;
74215;SDS011;62577;53.378;-2.914;2022-10-23T02:37:30;13.18;;;5.93;;
74215;SDS011;62577;53.378;-2.914;2022-10-23T02:39:56;11.25;;;5.18;;
74215;SDS011;62577;53.378;-2.914;2022-10-23T03:00:24;15.02;;;6.03;;
74215;SDS011;62577;53.378;-2.914;2022-10-23T03:05:19;14.15;;;5.97;;
74215;SDS011;62577;53.378;-2.914;2022-10-23T03:07:46;10.18;;;5.97;;
74215;SDS011;62577;53.378;-2.914;2022-10-23T03:10:13;12.77;;;5.80;;
74215;SDS011;62577;53.378;-2.914;2022-10-23T03:12:39;18.30;;;6.72;;
74215;SDS011;62577;53.378;-2.914;2022-10-23T03:15:06;16.10;;;6.13;;
74215;SDS011;62577;53.378;-2.914;2022-10-23T03:17:32;14.20;;;5.93;;
74215;SDS011;62577;53.378;-2.914;2022-10-23T03:19:58;12.77;;;5.15;;
74215;SDS011;62577;53.378;-2.914;2022-10-23T03:22:24;12.15;;;5.13;;
74215;SDS011;62577;53.378;-2.914;2022-10-23T03:24:50;12.07;;;5.35;;
74215;SDS011;62577;53.378;-2.914;2022-10-23T03:27:16;14.43;;;5.88;;
74215;SDS011;62577;53.378;-2.914;2022-10-23T03:29:42;12.30;;;4.53;;
74215;SDS011;62577;53.378;-2.914;2022-10-23T03:32:08;11.93;;;4.25;;
74215;SDS011;62577;53.378;-2.914;2022-10-23T03:34:34;13.68;;;4.55;;
74215;SDS011;62577;53.378;-2.914;2022-10-23T03:37:00;13.82;;;5.13;;
74215;SDS011;62577;53.378;-2.914;2022-10-23T03:39:26;11.80;;;4.32;;
74215;SDS011;62577;53.378;-2.914;2022-10-23T03:41:52;9.73;;;4.03;;
74215;SDS011;62577;53.378;-2.914;2022-10-23T03:44:18;15.05;;;5.25;;
74215;SDS011;62577;53.378;-2.914;2022-10-23T03:46:44;16.98;;;5.22;;
74215;SDS011;62577;53.378;-2.914;2022-10-23T03:49:10;13.00;;;5.18;;
74215;SDS011;62577;53.378;-2.914;2022-10-23T03:51:36;13.52;;;4.82;;
74215;SDS011;62577;53.378;-2.914;2022-10-23T03:54:05;14.50;;;5.53;;
74215;SDS011;62577;53.378;-2.914;2022-10-23T03:56:31;15.80;;;5.45;;
74215;SDS011;62577;53.378;-2.914;2022-10-23T03:58:57;11.93;;;5.43;;
74215;SDS011;62577;53.378;-2.914;2022-10-23T04:01:24;14.55;;;6.13;;
74215;SDS011;62577;53.378;-2.914;2022-10-23T04:03:50;14.45;;;6.80;;
74215;SDS011;62577;53.378;-2.914;2022-10-23T04:06:16;14.55;;;6.35;;
74215;SDS011;62577;53.378;-2.914;2022-10-23T04:08:42;13.63;;;6.22;;
74215;SDS011;62577;53.378;-2.914;2022-10-23T04:11:09;16.90;;;7.30;;
74215;SDS011;62577;53.378;-2.914;2022-10-23T04:13:35;16.42;;;7.30;;
74215;SDS011;62577;53.378;-2.914;2022-10-23T04:16:01;16.08;;;7.65;;
74215;SDS011;62577;53.378;-2.914;2022-10-23T04:18:27;15.57;;;8.18;;
74215;SDS011;62577;53.378;-2.914;2022-10-23T04:20:53;17.13;;;9.07;;
74215;SDS011;62577;53.378;-2.914;2022-10-23T04:23:19;15.13;;;8.02;;
74215;SDS011;62577;53.378;-2.914;2022-10-23T04:25:45;18.08;;;8.38;;
74215;SDS011;62577;53.378;-2.914;2022-10-23T04:28:11;16.40;;;9.55;;
74215;SDS011;62577;53.378;-2.914;2022-10-23T04:30:37;16.80;;;8.27;;
74215;SDS011;62577;53.378;-2.914;2022-10-23T04:33:04;19.52;;;9.32;;
74215;SDS011;62577;53.378;-2.914;2022-10-23T04:35:30;19.45;;;8.55;;
74215;SDS011;62577;53.378;-2.914;2022-10-23T04:37:56;18.60;;;8.15;;
74215;SDS011;62577;53.378;-2.914;2022-10-23T04:40:22;22.95;;;10.30;;
74215;SDS011;62577;53.378;-2.914;2022-10-23T04:42:48;24.83;;;10.57;;
74215;SDS011;62577;53.378;-2.914;2022-10-23T04:45:14;25.50;;;10.13;;
74215;SDS011;62577;53.378;-2.914;2022-10-23T04:47:40;28.33;;;10.88;;
74215;SDS011;62577;53.378;-2.914;2022-10-23T04:50:06;21.33;;;10.20;;
74215;SDS011;62577;53.378;-2.914;2022-10-23T04:52:32;21.40;;;9.63;;
74215;SDS011;62577;53.378;-2.914;2022-10-23T04:54:58;18.80;;;8.90;;
74215;SDS011;62577;53.378;-2.914;2022-10-23T04:57:24;23.05;;;11.63;;
74215;SDS011;62577;53.378;-2.914;2022-10-23T04:59:50;15.32;;;8.57;;
74215;SDS011;62577;53.378;-2.914;2022-10-23T05:02:16;24.17;;;9.38;;
74215;SDS011;62577;53.378;-2.914;2022-10-23T05:04:42;18.73;;;8.73;;
74215;SDS011;62577;53.378;-2.914;2022-10-23T05:07:08;19.48;;;9.25;;
74215;SDS011;62577;53.378;-2.914;2022-10-23T05:09:34;23.02;;;11.15;;
74215;SDS011;62577;53.378;-2.914;2022-10-23T05:12:00;20.45;;;8.88;;
74215;SDS011;62577;53.378;-2.914;2022-10-23T05:14:26;21.50;;;8.82;;
74215;SDS011;62577;53.378;-2.914;2022-10-23T05:17:12;19.45;;;9.35;;
74215;SDS011;62577;53.378;-2.914;2022-10-23T05:22:05;21.98;;;7.78;;
74215;SDS011;62577;53.378;-2.914;2022-10-23T05:24:31;18.80;;;8.55;;
74215;SDS011;62577;53.378;-2.914;2022-10-23T05:26:57;17.00;;;7.18;;
74215;SDS011;62577;53.378;-2.914;2022-10-23T05:29:23;18.92;;;9.25;;
74215;SDS011;62577;53.378;-2.914;2022-10-23T05:31:49;18.50;;;8.95;;
74215;SDS011;62577;53.378;-2.914;2022-10-23T05:34:19;17.13;;;8.48;;
74215;SDS011;62577;53.378;-2.914;2022-10-23T05:36:46;18.23;;;8.75;;
74215;SDS011;62577;53.378;-2.914;2022-10-23T05:39:12;16.88;;;9.95;;
74215;SDS011;62577;53.378;-2.914;2022-10-23T05:41:38;17.35;;;9.18;;
74215;SDS011;62577;53.378;-2.914;2022-10-23T05:44:04;16.88;;;8.80;;
74215;SDS011;62577;53.378;-2.914;2022-10-23T05:46:30;17.92;;;8.40;;
74215;SDS011;62577;53.378;-2.914;2022-10-23T05:48:56;18.80;;;8.02;;
74215;SDS011;62577;53.378;-2.914;2022-10-23T05:51:22;16.90;;;8.10;;
74215;SDS011;62577;53.378;-2.914;2022-10-23T05:53:48;17.67;;;8.23;;
74215;SDS011;62577;53.378;-2.914;2022-10-23T05:56:14;20.13;;;8.80;;
74215;SDS011;62577;53.378;-2.914;2022-10-23T05:58:41;17.50;;;8.63;;
74215;SDS011;62577;53.378;-2.914;2022-10-23T06:01:08;16.75;;;8.43;;
74215;SDS011;62577;53.378;-2.914;2022-10-23T06:03:35;16.00;;;7.43;;
74215;SDS011;62577;53.378;-2.914;2022-10-23T06:06:01;14.43;;;8.38;;
74215;SDS011;62577;53.378;-2.914;2022-10-23T06:08:28;16.88;;;7.65;;
74215;SDS011;62577;53.378;-2.914;2022-10-23T06:10:54;16.83;;;7.20;;
74215;SDS011;62577;53.378;-2.914;2022-10-23T06:13:20;16.45;;;7.63;;
74215;SDS011;62577;53.378;-2.914;2022-10-23T06:15:46;17.75;;;8.15;;
74215;SDS011;62577;53.378;-2.914;2022-10-23T06:18:12;17.23;;;8.27;;
74215;SDS011;62577;53.378;-2.914;2022-10-23T06:20:38;16.88;;;8.60;;
74215;SDS011;62577;53.378;-2.914;2022-10-23T06:23:04;13.73;;;7.88;;
74215;SDS011;62577;53.378;-2.914;2022-10-23T06:25:31;16.75;;;8.15;;
74215;SDS011;62577;53.378;-2.914;2022-10-23T06:27:57;15.93;;;8.00;;
74215;SDS011;62577;53.378;-2.914;2022-10-23T06:30:23;16.58;;;8.55;;
74215;SDS011;62577;53.378;-2.914;2022-10-23T06:32:49;15.73;;;9.02;;
74215;SDS011;62577;53.378;-2.914;2022-10-23T06:35:15;17.58;;;8.75;;
74215;SDS011;62577;53.378;-2.914;2022-10-23T06:37:42;15.82;;;8.90;;
74215;SDS011;62577;53.378;-2.914;2022-10-23T06:40:08;19.23;;;8.40;;
74215;SDS011;62577;53.378;-2.914;2022-10-23T06:42:34;19.58;;;8.43;;
74215;SDS011;62577;53.378;-2.914;2022-10-23T06:45:00;17.48;;;9.07;;
74215;SDS011;62577;53.378;-2.914;2022-10-23T06:47:26;23.08;;;8.80;;
74215;SDS011;62577;53.378;-2.914;2022-10-23T06:49:52;15.88;;;8.43;;
74215;SDS011;62577;53.378;-2.914;2022-10-23T06:52:18;15.90;;;8.15;;
74215;SDS011;62577;53.378;-2.914;2022-10-23T06:54:44;24.35;;;8.85;;
74215;SDS011;62577;53.378;-2.914;2022-10-23T06:57:10;18.60;;;9.85;;
74215;SDS011;62577;53.378;-2.914;2022-10-23T06:59:36;18.00;;;8.75;;
74215;SDS011;62577;53.378;-2.914;2022-10-23T07:02:02;20.33;;;8.80;;
74215;SDS011;62577;53.378;-2.914;2022-10-23T07:04:28;18.15;;;8.95;;
74215;SDS011;62577;53.378;-2.914;2022-10-23T07:06:55;16.85;;;9.25;;
74215;SDS011;62577;53.378;-2.914;2022-10-23T07:09:21;19.58;;;7.95;;
74215;SDS011;62577;53.378;-2.914;2022-10-23T07:11:48;17.33;;;8.75;;
74215;SDS011;62577;53.378;-2.914;2022-10-23T07:14:14;21.08;;;10.15;;
74215;SDS011;62577;53.378;-2.914;2022-10-23T07:16:40;22.33;;;10.65;;
74215;SDS011;62577;53.378;-2.914;2022-10-23T07:19:06;21.60;;;9.48;;
74215;SDS011;62577;53.378;-2.914;2022-10-23T07:21:32;18.75;;;9.02;;
74215;SDS011;62577;53.378;-2.914;2022-10-23T07:23:59;18.75;;;9.30;;
74215;SDS011;62577;53.378;-2.914;2022-10-23T07:26:25;21.85;;;9.43;;
74215;SDS011;62577;53.378;-2.914;2022-10-23T07:28:51;41.40;;;11.15;;
74215;SDS011;62577;53.378;-2.914;2022-10-23T07:31:19;25.33;;;10.73;;
74215;SDS011;62577;53.378;-2.914;2022-10-23T07:33:45;20.40;;;9.40;;
74215;SDS011;62577;53.378;-2.914;2022-10-23T07:36:11;23.02;;;8.88;;
74215;SDS011;62577;53.378;-2.914;2022-10-23T07:38:38;24.67;;;10.55;;
74215;SDS011;62577;53.378;-2.914;2022-10-23T07:41:04;22.00;;;7.93;;
74215;SDS011;62577;53.378;-2.914;2022-10-23T07:43:30;17.95;;;9.40;;
74215;SDS011;62577;53.378;-2.914;2022-10-23T07:45:58;26.73;;;10.07;;
74215;SDS011;62577;53.378;-2.914;2022-10-23T07:48:24;20.65;;;9.88;;
74215;SDS011;62577;53.378;-2.914;2022-10-23T07:50:51;25.98;;;11.20;;
74215;SDS011;62577;53.378;-2.914;2022-10-23T07:53:18;23.17;;;11.00;;
74215;SDS011;62577;53.378;-2.914;2022-10-23T07:55:56;25.52;;;10.80;;
74215;SDS011;62577;53.378;-2.914;2022-10-23T07:58:22;20.92;;;12.63;;
74215;SDS011;62577;53.378;-2.914;2022-10-23T08:00:55;14.93;;;6.53;;
74215;SDS011;62577;53.378;-2.914;2022-10-23T08:03:23;27.63;;;11.60;;
74215;SDS011;62577;53.378;-2.914;2022-10-23T08:05:49;29.33;;;11.57;;
74215;SDS011;62577;53.378;-2.914;2022-10-23T08:08:16;22.58;;;11.20;;
74215;SDS011;62577;53.378;-2.914;2022-10-23T08:10:42;18.77;;;8.27;;
74215;SDS011;62577;53.378;-2.914;2022-10-23T08:13:09;24.45;;;10.40;;
74215;SDS011;62577;53.378;-2.914;2022-10-23T08:15:37;25.90;;;9.98;;
74215;SDS011;62577;53.378;-2.914;2022-10-23T08:18:03;25.15;;;10.35;;
74215;SDS011;62577;53.378;-2.914;2022-10-23T08:20:29;22.77;;;10.88;;
74215;SDS011;62577;53.378;-2.914;2022-10-23T08:22:55;25.55;;;10.80;;
74215;SDS011;62577;53.378;-2.914;2022-10-23T08:25:21;13.95;;;7.65;;
74215;SDS011;62577;53.378;-2.914;2022-10-23T08:27:47;20.42;;;8.82;;
74215;SDS011;62577;53.378;-2.914;2022-10-23T08:30:13;21.45;;;10.80;;
74215;SDS011;62577;53.378;-2.914;2022-10-23T08:32:39;20.58;;;9.77;;
74215;SDS011;62577;53.378;-2.914;2022-10-23T08:35:05;24.67;;;10.40;;
74215;SDS011;62577;53.378;-2.914;2022-10-23T08:37:31;22.77;;;9.57;;
74215;SDS011;62577;53.378;-2.914;2022-10-23T08:39:57;18.88;;;7.70;;
74215;SDS011;62577;53.378;-2.914;2022-10-23T08:42:24;17.58;;;9.15;;
74215;SDS011;62577;53.378;-2.914;2022-10-23T08:44:52;17.13;;;8.63;;
74215;SDS011;62577;53.378;-2.914;2022-10-23T08:47:24;15.20;;;8.00;;
74215;SDS011;62577;53.378;-2.914;2022-10-23T08:49:56;13.15;;;7.95;;
74215;SDS011;62577;53.378;-2.914;2022-10-23T08:57:32;20.08;;;8.25;;
74215;SDS011;62577;53.378;-2.914;2022-10-23T09:00:05;16.73;;;8.75;;
74215;SDS011;62577;53.378;-2.914;2022-10-23T09:02:34;17.35;;;6.05;;
74215;SDS011;62577;53.378;-2.914;2022-10-23T09:05:01;14.95;;;6.43;;
74215;SDS011;62577;53.378;-2.914;2022-10-23T09:12:37;17.10;;;8.55;;
74215;SDS011;62577;53.378;-2.914;2022-10-23T09:15:14;15.82;;;8.82;;
74215;SDS011;62577;53.378;-2.914;2022-10-23T09:17:43;13.55;;;7.63;;
74215;SDS011;62577;53.378;-2.914;2022-10-23T09:22:41;11.35;;;5.47;;
74215;SDS011;62577;53.378;-2.914;2022-10-23T09:25:08;15.80;;;7.43;;
74215;SDS011;62577;53.378;-2.914;2022-10-23T09:27:35;8.95;;;5.55;;
74215;SDS011;62577;53.378;-2.914;2022-10-23T09:30:01;16.15;;;8.05;;
74215;SDS011;62577;53.378;-2.914;2022-10-23T09:32:31;13.88;;;7.32;;
74215;SDS011;62577;53.378;-2.914;2022-10-23T09:34:58;10.35;;;5.70;;
74215;SDS011;62577;53.378;-2.914;2022-10-23T09:37:25;8.23;;;5.03;;
74215;SDS011;62577;53.378;-2.914;2022-10-23T09:40:11;11.45;;;5.72;;
74215;SDS011;62577;53.378;-2.914;2022-10-23T09:42:48;8.80;;;4.68;;
74215;SDS011;62577;53.378;-2.914;2022-10-23T09:45:20;6.88;;;3.40;;
74215;SDS011;62577;53.378;-2.914;2022-10-23T09:47:46;7.95;;;4.03;;
74215;SDS011;62577;53.378;-2.914;2022-10-23T09:50:19;6.72;;;3.78;;
74215;SDS011;62577;53.378;-2.914;2022-10-23T09:52:47;7.63;;;3.53;;
74215;SDS011;62577;53.378;-2.914;2022-10-23T09:55:21;5.97;;;3.53;;
74215;SDS011;62577;53.378;-2.914;2022-10-23T10:02:42;8.63;;;4.38;;
74215;SDS011;62577;53.378;-2.914;2022-10-23T10:05:22;7.13;;;3.55;;
74215;SDS011;62577;53.378;-2.914;2022-10-23T10:10:41;5.85;;;3.08;;
74215;SDS011;62577;53.378;-2.914;2022-10-23T10:15:48;5.10;;;2.67;;
74215;SDS011;62577;53.378;-2.914;2022-10-23T10:20:43;6.00;;;2.55;;
74215;SDS011;62577;53.378;-2.914;2022-10-23T10:31:14;2.63;;;1.52;;
74215;SDS011;62577;53.378;-2.914;2022-10-23T10:41:59;1.10;;;0.57;;
74215;SDS011;62577;53.378;-2.914;2022-10-23T10:47:05;4.85;;;1.20;;
74215;SDS011;62577;53.378;-2.914;2022-10-23T10:49:39;1.48;;;0.82;;
74215;SDS011;62577;53.378;-2.914;2022-10-23T10:57:38;1.20;;;0.80;;
74215;SDS011;62577;53.378;-2.914;2022-10-23T11:00:15;1.90;;;1.25;;
74215;SDS011;62577;53.378;-2.914;2022-10-23T11:02:44;3.53;;;1.00;;
74215;SDS011;62577;53.378;-2.914;2022-10-23T11:05:14;1.38;;;0.90;;
74215;SDS011;62577;53.378;-2.914;2022-10-23T11:07:52;3.10;;;1.10;;
74215;SDS011;62577;53.378;-2.914;2022-10-23T11:10:18;1.52;;;1.00;;
74215;SDS011;62577;53.378;-2.914;2022-10-23T11:12:45;2.38;;;0.82;;
74215;SDS011;62577;53.378;-2.914;2022-10-23T11:15:16;1.20;;;0.90;;
74215;SDS011;62577;53.378;-2.914;2022-10-23T11:17:45;1.55;;;0.88;;
74215;SDS011;62577;53.378;-2.914;2022-10-23T11:20:22;2.20;;;1.33;;
74215;SDS011;62577;53.378;-2.914;2022-10-23T11:25:42;3.08;;;1.00;;
74215;SDS011;62577;53.378;-2.914;2022-10-23T11:34:02;3.42;;;1.17;;
74215;SDS011;62577;53.378;-2.914;2022-10-23T11:39:26;2.47;;;1.20;;
74215;SDS011;62577;53.378;-2.914;2022-10-23T11:41:55;1.88;;;0.95;;
74215;SDS011;62577;53.378;-2.914;2022-10-23T11:50:03;1.30;;;0.85;;
74215;SDS011;62577;53.378;-2.914;2022-10-23T11:52:29;1.65;;;0.95;;
74215;SDS011;62577;53.378;-2.914;2022-10-23T11:55:02;2.75;;;0.77;;
74215;SDS011;62577;53.378;-2.914;2022-10-23T11:57:29;2.67;;;1.20;;
74215;SDS011;62577;53.378;-2.914;2022-10-23T11:59:55;1.40;;;0.90;;
74215;SDS011;62577;53.378;-2.914;2022-10-23T12:02:40;1.08;;;0.60;;
74215;SDS011;62577;53.378;-2.914;2022-10-23T12:05:07;1.13;;;0.60;;
74215;SDS011;62577;53.378;-2.914;2022-10-23T12:07:35;0.82;;;0.43;;
74215;SDS011;62577;53.378;-2.914;2022-10-23T12:10:06;0.75;;;0.50;;
74215;SDS011;62577;53.378;-2.914;2022-10-23T12:12:42;1.98;;;0.50;;
74215;SDS011;62577;53.378;-2.914;2022-10-23T12:15:20;1.45;;;0.65;;
74215;SDS011;62577;53.378;-2.914;2022-10-23T12:17:47;2.45;;;1.00;;
74215;SDS011;62577;53.378;-2.914;2022-10-23T12:25:12;0.80;;;0.50;;
74215;SDS011;62577;53.378;-2.914;2022-10-23T12:27:41;1.63;;;0.55;;
74215;SDS011;62577;53.378;-2.914;2022-10-23T12:30:20;1.00;;;0.43;;
74215;SDS011;62577;53.378;-2.914;2022-10-23T12:35:52;0.60;;;0.38;;
74215;SDS011;62577;53.378;-2.914;2022-10-23T12:38:22;1.73;;;0.63;;
74215;SDS011;62577;53.378;-2.914;2022-10-23T12:40:50;0.98;;;0.38;;
74215;SDS011;62577;53.378;-2.914;2022-10-23T12:43:26;2.53;;;0.43;;
74215;SDS011;62577;53.378;-2.914;2022-10-23T12:45:53;0.70;;;0.40;;
74215;SDS011;62577;53.378;-2.914;2022-10-23T12:48:21;1.05;;;0.55;;
74215;SDS011;62577;53.378;-2.914;2022-10-23T12:50:48;1.50;;;0.50;;
74215;SDS011;62577;53.378;-2.914;2022-10-23T12:53:16;0.50;;;0.30;;
74215;SDS011;62577;53.378;-2.914;2022-10-23T12:58:25;1.42;;;0.60;;
74215;SDS011;62577;53.378;-2.914;2022-10-23T13:00:52;1.30;;;0.70;;
74215;SDS011;62577;53.378;-2.914;2022-10-23T13:03:19;2.38;;;0.80;;
74215;SDS011;62577;53.378;-2.914;2022-10-23T13:05:46;0.98;;;0.60;;
74215;SDS011;62577;53.378;-2.914;2022-10-23T13:08:12;1.80;;;0.90;;
74215;SDS011;62577;53.378;-2.914;2022-10-23T13:10:38;0.80;;;0.60;;
74215;SDS011;62577;53.378;-2.914;2022-10-23T13:13:05;0.90;;;0.60;;
74215;SDS011;62577;53.378;-2.914;2022-10-23T13:15:36;1.10;;;0.90;;
74215;SDS011;62577;53.378;-2.914;2022-10-23T13:18:03;4.60;;;1.00;;
74215;SDS011;62577;53.378;-2.914;2022-10-23T13:20:34;1.05;;;0.57;;
74215;SDS011;62577;53.378;-2.914;2022-10-23T13:25:34;1.48;;;0.52;;
74215;SDS011;62577;53.378;-2.914;2022-10-23T13:30:34;1.90;;;0.73;;
74215;SDS011;62577;53.378;-2.914;2022-10-23T13:33:12;2.10;;;0.80;;
74215;SDS011;62577;53.378;-2.914;2022-10-23T13:35:38;1.80;;;0.80;;
74215;SDS011;62577;53.378;-2.914;2022-10-23T13:38:08;0.80;;;0.45;;
74215;SDS011;62577;53.378;-2.914;2022-10-23T13:40:34;2.38;;;0.73;;
74215;SDS011;62577;53.378;-2.914;2022-10-23T13:43:00;1.08;;;0.70;;
74215;SDS011;62577;53.378;-2.914;2022-10-23T13:45:26;1.65;;;1.10;;
74215;SDS011;62577;53.378;-2.914;2022-10-23T13:47:52;1.63;;;0.52;;
74215;SDS011;62577;53.378;-2.914;2022-10-23T13:50:18;2.08;;;1.10;;
74215;SDS011;62577;53.378;-2.914;2022-10-23T13:52:45;2.15;;;0.80;;
74215;SDS011;62577;53.378;-2.914;2022-10-23T13:55:23;1.45;;;0.80;;
74215;SDS011;62577;53.378;-2.914;2022-10-23T13:57:50;2.53;;;0.98;;
74215;SDS011;62577;53.378;-2.914;2022-10-23T14:00:16;0.95;;;0.63;;
74215;SDS011;62577;53.378;-2.914;2022-10-23T14:02:42;1.25;;;0.70;;
74215;SDS011;62577;53.378;-2.914;2022-10-23T14:05:08;3.33;;;0.85;;
74215;SDS011;62577;53.378;-2.914;2022-10-23T14:07:34;1.13;;;0.73;;
74215;SDS011;62577;53.378;-2.914;2022-10-23T14:10:01;7.53;;;1.55;;
74215;SDS011;62577;53.378;-2.914;2022-10-23T14:12:27;1.27;;;0.95;;
74215;SDS011;62577;53.378;-2.914;2022-10-23T14:14:53;2.10;;;0.82;;
74215;SDS011;62577;53.378;-2.914;2022-10-23T14:17:19;2.35;;;1.15;;
74215;SDS011;62577;53.378;-2.914;2022-10-23T14:19:45;1.63;;;1.13;;
74215;SDS011;62577;53.378;-2.914;2022-10-23T14:22:11;2.35;;;1.48;;
74215;SDS011;62577;53.378;-2.914;2022-10-23T14:24:37;3.38;;;1.40;;
74215;SDS011;62577;53.378;-2.914;2022-10-23T14:27:03;3.00;;;2.10;;
74215;SDS011;62577;53.378;-2.914;2022-10-23T14:29:29;2.28;;;1.30;;
74215;SDS011;62577;53.378;-2.914;2022-10-23T14:31:55;4.38;;;1.15;;
74215;SDS011;62577;53.378;-2.914;2022-10-23T14:34:21;2.83;;;1.30;;
74215;SDS011;62577;53.378;-2.914;2022-10-23T14:36:47;2.17;;;1.48;;
74215;SDS011;62577;53.378;-2.914;2022-10-23T14:39:13;3.92;;;1.77;;
74215;SDS011;62577;53.378;-2.914;2022-10-23T14:41:39;2.70;;;1.98;;
74215;SDS011;62577;53.378;-2.914;2022-10-23T14:44:06;3.25;;;2.15;;
74215;SDS011;62577;53.378;-2.914;2022-10-23T14:46:32;5.30;;;1.98;;
74215;SDS011;62577;53.378;-2.914;2022-10-23T14:48:59;2.92;;;1.83;;
74215;SDS011;62577;53.378;-2.914;2022-10-23T14:51:26;3.22;;;1.83;;
74215;SDS011;62577;53.378;-2.914;2022-10-23T14:56:20;1.70;;;1.33;;
74215;SDS011;62577;53.378;-2.914;2022-10-23T14:58:47;2.83;;;1.27;;
74215;SDS011;62577;53.378;-2.914;2022-10-23T15:01:13;3.45;;;1.70;;
74215;SDS011;62577;53.378;-2.914;2022-10-23T15:03:39;4.03;;;1.77;;
74215;SDS011;62577;53.378;-2.914;2022-10-23T15:06:06;2.85;;;1.58;;
74215;SDS011;62577;53.378;-2.914;2022-10-23T15:08:32;3.72;;;1.60;;
74215;SDS011;62577;53.378;-2.914;2022-10-23T15:10:59;2.38;;;1.50;;
74215;SDS011;62577;53.378;-2.914;2022-10-23T15:13:25;4.00;;;1.95;;
74215;SDS011;62577;53.378;-2.914;2022-10-23T15:16:04;3.15;;;1.90;;
74215;SDS011;62577;53.378;-2.914;2022-10-23T15:18:30;4.22;;;1.55;;
74215;SDS011;62577;53.378;-2.914;2022-10-23T15:20:57;3.53;;;1.92;;
74215;SDS011;62577;53.378;-2.914;2022-10-23T15:23:23;3.20;;;2.00;;
74215;SDS011;62577;53.378;-2.914;2022-10-23T15:25:59;4.22;;;1.80;;
74215;SDS011;62577;53.378;-2.914;2022-10-23T15:28:26;3.70;;;2.03;;
74215;SDS011;62577;53.378;-2.914;2022-10-23T15:30:52;4.72;;;2.00;;
74215;SDS011;62577;53.378;-2.914;2022-10-23T15:33:19;2.85;;;2.13;;
74215;SDS011;62577;53.378;-2.914;2022-10-23T15:35:45;4.03;;;2.20;;
74215;SDS011;62577;53.378;-2.914;2022-10-23T15:38:11;5.97;;;2.10;;
74215;SDS011;62577;53.378;-2.914;2022-10-23T15:40:37;4.25;;;2.25;;
74215;SDS011;62577;53.378;-2.914;2022-10-23T15:43:03;3.90;;;2.40;;
74215;SDS011;62577;53.378;-2.914;2022-10-23T15:45:30;3.35;;;2.03;;
74215;SDS011;62577;53.378;-2.914;2022-10-23T15:47:56;5.07;;;2.20;;
74215;SDS011;62577;53.378;-2.914;2022-10-23T15:50:22;5.10;;;2.42;;
74215;SDS011;62577;53.378;-2.914;2022-10-23T15:52:48;4.57;;;2.47;;
74215;SDS011;62577;53.378;-2.914;2022-10-23T15:55:15;4.97;;;2.85;;
74215;SDS011;62577;53.378;-2.914;2022-10-23T15:57:41;4.30;;;2.85;;
74215;SDS011;62577;53.378;-2.914;2022-10-23T16:00:08;4.43;;;2.35;;
74215;SDS011;62577;53.378;-2.914;2022-10-23T16:02:34;6.20;;;3.10;;
74215;SDS011;62577;53.378;-2.914;2022-10-23T16:05:00;8.65;;;3.60;;
74215;SDS011;62577;53.378;-2.914;2022-10-23T16:07:27;4.28;;;2.55;;
74215;SDS011;62577;53.378;-2.914;2022-10-23T16:09:53;5.18;;;2.33;;
74215;SDS011;62577;53.378;-2.914;2022-10-23T16:12:19;3.65;;;2.20;;
74215;SDS011;62577;53.378;-2.914;2022-10-23T16:14:45;4.82;;;2.40;;
74215;SDS011;62577;53.378;-2.914;2022-10-23T16:17:11;3.88;;;2.20;;
74215;SDS011;62577;53.378;-2.914;2022-10-23T16:19:38;3.15;;;2.08;;
74215;SDS011;62577;53.378;-2.914;2022-10-23T16:22:04;5.75;;;3.15;;
74215;SDS011;62577;53.378;-2.914;2022-10-23T16:24:30;4.82;;;3.22;;
74215;SDS011;62577;53.378;-2.914;2022-10-23T16:26:56;5.35;;;2.50;;
74215;SDS011;62577;53.378;-2.914;2022-10-23T16:29:23;4.75;;;3.90;;
74215;SDS011;62577;53.378;-2.914;2022-10-23T16:31:50;6.43;;;3.97;;
74215;SDS011;62577;53.378;-2.914;2022-10-23T16:34:16;4.75;;;2.90;;
74215;SDS011;62577;53.378;-2.914;2022-10-23T16:36:42;3.45;;;2.80;;
74215;SDS011;62577;53.378;-2.914;2022-10-23T16:39:09;5.90;;;3.45;;
74215;SDS011;62577;53.378;-2.914;2022-10-23T16:41:36;6.40;;;4.43;;